sensor_id;sensor_type;location;lat;lon;timestamp;P1;durP1;ratioP1;P2;durP2;ratioP2
23658;SDS011;12006;42.666;23.326;2023-10-09T08:10:17;3.60;;;1.70;;
23658;SDS011;12006;42.666;23.326;2023-10-09T08:12:43;1.90;;;1.70;;
23658;SDS011;12006;42.666;23.326;2023-10-09T08:15:15;1.58;;;1.45;;
23658;SDS011;12006;42.666;23.326;2023-10-09T08:18:02;3.67;;;1.50;;
23658;SDS011;12006;42.666;23.326;2023-10-09T08:20:43;1.30;;;1.20;;
23658;SDS011;12006;42.666;23.326;2023-10-09T08:23:27;2.65;;;2.50;;
23658;SDS011;12006;42.666;23.326;2023-10-09T08:26:13;6.03;;;5.63;;
23658;SDS011;12006;42.666;23.326;2023-10-09T08:28:39;2.42;;;1.75;;
23658;SDS011;12006;42.666;23.326;2023-10-09T08:31:09;1.55;;;1.45;;
23658;SDS011;12006;42.666;23.326;2023-10-09T08:33:44;2.15;;;1.33;;
23658;SDS011;12006;42.666;23.326;2023-10-09T08:36:26;1.00;;;0.90;;
23658;SDS011;12006;42.666;23.326;2023-10-09T08:39:05;2.40;;;1.08;;
23658;SDS011;12006;42.666;23.326;2023-10-09T08:41:50;1.80;;;1.23;;
23658;SDS011;12006;42.666;23.326;2023-10-09T08:44:22;1.20;;;1.10;;
23658;SDS011;12006;42.666;23.326;2023-10-09T08:46:51;3.05;;;1.60;;
23658;SDS011;12006;42.666;23.326;2023-10-09T08:49:19;1.63;;;1.40;;
23658;SDS011;12006;42.666;23.326;2023-10-09T08:51:46;1.58;;;1.27;;
23658;SDS011;12006;42.666;23.326;2023-10-09T08:54:13;2.30;;;1.10;;
23658;SDS011;12006;42.666;23.326;2023-10-09T08:56:39;2.50;;;1.52;;
23658;SDS011;12006;42.666;23.326;2023-10-09T08:59:14;1.17;;;1.00;;
23658;SDS011;12006;42.666;23.326;2023-10-09T09:01:43;2.30;;;1.25;;
23658;SDS011;12006;42.666;23.326;2023-10-09T09:07:04;1.65;;;1.13;;
23658;SDS011;12006;42.666;23.326;2023-10-09T09:09:30;2.10;;;1.20;;
23658;SDS011;12006;42.666;23.326;2023-10-09T09:11:57;1.88;;;1.42;;
23658;SDS011;12006;42.666;23.326;2023-10-09T09:14:34;1.85;;;1.30;;
23658;SDS011;12006;42.666;23.326;2023-10-09T09:17:02;2.33;;;1.23;;
23658;SDS011;12006;42.666;23.326;2023-10-09T09:19:32;3.22;;;1.23;;
23658;SDS011;12006;42.666;23.326;2023-10-09T09:22:01;1.35;;;1.00;;
23658;SDS011;12006;42.666;23.326;2023-10-09T09:24:37;1.40;;;1.30;;
23658;SDS011;12006;42.666;23.326;2023-10-09T09:27:04;1.52;;;0.90;;
23658;SDS011;12006;42.666;23.326;2023-10-09T09:29:46;1.45;;;1.33;;
23658;SDS011;12006;42.666;23.326;2023-10-09T09:32:26;2.10;;;1.00;;
23658;SDS011;12006;42.666;23.326;2023-10-09T09:35:00;3.50;;;1.13;;
23658;SDS011;12006;42.666;23.326;2023-10-09T09:37:27;1.33;;;1.00;;
23658;SDS011;12006;42.666;23.326;2023-10-09T09:39:58;1.98;;;1.13;;
23658;SDS011;12006;42.666;23.326;2023-10-09T09:42:40;2.67;;;2.22;;
23658;SDS011;12006;42.666;23.326;2023-10-09T09:45:12;1.73;;;1.15;;
23658;SDS011;12006;42.666;23.326;2023-10-09T09:47:38;1.60;;;1.50;;
23658;SDS011;12006;42.666;23.326;2023-10-09T09:50:05;1.13;;;1.02;;
23658;SDS011;12006;42.666;23.326;2023-10-09T09:52:49;2.85;;;1.75;;
23658;SDS011;12006;42.666;23.326;2023-10-09T09:55:18;1.77;;;1.33;;
23658;SDS011;12006;42.666;23.326;2023-10-09T09:57:47;1.88;;;1.45;;
23658;SDS011;12006;42.666;23.326;2023-10-09T10:00:18;2.83;;;1.70;;
23658;SDS011;12006;42.666;23.326;2023-10-09T10:02:57;2.90;;;1.83;;
23658;SDS011;12006;42.666;23.326;2023-10-09T10:05:27;3.20;;;1.65;;
23658;SDS011;12006;42.666;23.326;2023-10-09T10:07:58;1.88;;;1.08;;
23658;SDS011;12006;42.666;23.326;2023-10-09T10:10:40;1.98;;;1.25;;
23658;SDS011;12006;42.666;23.326;2023-10-09T10:13:18;1.52;;;1.40;;
23658;SDS011;12006;42.666;23.326;2023-10-09T10:16:10;2.25;;;1.15;;
23658;SDS011;12006;42.666;23.326;2023-10-09T10:19:03;2.33;;;1.30;;
23658;SDS011;12006;42.666;23.326;2023-10-09T10:21:46;3.30;;;1.20;;
23658;SDS011;12006;42.666;23.326;2023-10-09T10:27:16;1.60;;;1.35;;
23658;SDS011;12006;42.666;23.326;2023-10-09T10:32:57;2.28;;;1.55;;
23658;SDS011;12006;42.666;23.326;2023-10-09T10:35:34;3.58;;;2.05;;
23658;SDS011;12006;42.666;23.326;2023-10-09T10:38:31;1.15;;;1.05;;
23658;SDS011;12006;42.666;23.326;2023-10-09T10:41:22;1.90;;;1.45;;
23658;SDS011;12006;42.666;23.326;2023-10-09T10:43:47;4.82;;;3.80;;
23658;SDS011;12006;42.666;23.326;2023-10-09T10:46:19;1.70;;;1.42;;
23658;SDS011;12006;42.666;23.326;2023-10-09T10:48:52;3.10;;;1.73;;
23658;SDS011;12006;42.666;23.326;2023-10-09T10:51:28;3.63;;;2.08;;
23658;SDS011;12006;42.666;23.326;2023-10-09T10:54:02;1.30;;;1.10;;
23658;SDS011;12006;42.666;23.326;2023-10-09T10:56:47;1.63;;;1.52;;
23658;SDS011;12006;42.666;23.326;2023-10-09T10:59:17;3.80;;;1.58;;
23658;SDS011;12006;42.666;23.326;2023-10-09T11:01:52;3.03;;;1.55;;
23658;SDS011;12006;42.666;23.326;2023-10-09T11:04:28;6.50;;;2.22;;
23658;SDS011;12006;42.666;23.326;2023-10-09T11:06:57;2.50;;;1.55;;
23658;SDS011;12006;42.666;23.326;2023-10-09T11:12:27;2.00;;;1.80;;
23658;SDS011;12006;42.666;23.326;2023-10-09T11:15:04;1.17;;;1.02;;
23658;SDS011;12006;42.666;23.326;2023-10-09T11:17:34;1.45;;;1.33;;
23658;SDS011;12006;42.666;23.326;2023-10-09T11:20:02;1.60;;;1.15;;
23658;SDS011;12006;42.666;23.326;2023-10-09T11:22:51;2.72;;;1.20;;
23658;SDS011;12006;42.666;23.326;2023-10-09T11:25:39;1.75;;;1.50;;
23658;SDS011;12006;42.666;23.326;2023-10-09T11:28:18;1.85;;;1.60;;
23658;SDS011;12006;42.666;23.326;2023-10-09T11:31:14;2.65;;;1.90;;
23658;SDS011;12006;42.666;23.326;2023-10-09T11:33:45;3.25;;;2.03;;
23658;SDS011;12006;42.666;23.326;2023-10-09T11:36:16;3.08;;;2.60;;
23658;SDS011;12006;42.666;23.326;2023-10-09T11:39:01;2.97;;;2.67;;
23658;SDS011;12006;42.666;23.326;2023-10-09T11:41:47;2.58;;;2.38;;
23658;SDS011;12006;42.666;23.326;2023-10-09T11:44:15;2.78;;;2.55;;
23658;SDS011;12006;42.666;23.326;2023-10-09T11:46:59;3.17;;;2.88;;
23658;SDS011;12006;42.666;23.326;2023-10-09T11:49:57;5.20;;;3.25;;
23658;SDS011;12006;42.666;23.326;2023-10-09T11:52:26;4.00;;;3.60;;
23658;SDS011;12006;42.666;23.326;2023-10-09T11:55:11;4.05;;;3.50;;
23658;SDS011;12006;42.666;23.326;2023-10-09T11:57:40;5.18;;;3.42;;
23658;SDS011;12006;42.666;23.326;2023-10-09T12:00:06;3.95;;;3.20;;
23658;SDS011;12006;42.666;23.326;2023-10-09T12:02:54;1.77;;;1.50;;
23658;SDS011;12006;42.666;23.326;2023-10-09T12:05:20;4.07;;;2.00;;
23658;SDS011;12006;42.666;23.326;2023-10-09T12:07:46;2.60;;;2.40;;
23658;SDS011;12006;42.666;23.326;2023-10-09T12:10:14;6.72;;;2.65;;
23658;SDS011;12006;42.666;23.326;2023-10-09T12:12:40;4.60;;;2.58;;
23658;SDS011;12006;42.666;23.326;2023-10-09T12:15:11;3.53;;;3.22;;
23658;SDS011;12006;42.666;23.326;2023-10-09T12:17:42;5.68;;;2.95;;
23658;SDS011;12006;42.666;23.326;2023-10-09T12:20:15;2.30;;;1.77;;
23658;SDS011;12006;42.666;23.326;2023-10-09T12:23:10;2.67;;;1.40;;
23658;SDS011;12006;42.666;23.326;2023-10-09T12:25:39;4.13;;;3.72;;
23658;SDS011;12006;42.666;23.326;2023-10-09T12:28:05;3.03;;;1.63;;
23658;SDS011;12006;42.666;23.326;2023-10-09T12:30:31;1.60;;;1.50;;
23658;SDS011;12006;42.666;23.326;2023-10-09T12:33:04;3.10;;;1.80;;
23658;SDS011;12006;42.666;23.326;2023-10-09T12:35:30;2.67;;;1.10;;
23658;SDS011;12006;42.666;23.326;2023-10-09T12:37:59;1.75;;;0.90;;
23658;SDS011;12006;42.666;23.326;2023-10-09T12:40:25;1.63;;;1.30;;
23658;SDS011;12006;42.666;23.326;2023-10-09T12:42:54;2.22;;;1.15;;
23658;SDS011;12006;42.666;23.326;2023-10-09T12:45:23;2.45;;;1.00;;
23658;SDS011;12006;42.666;23.326;2023-10-09T12:47:57;1.13;;;0.93;;
23658;SDS011;12006;42.666;23.326;2023-10-09T12:50:29;1.58;;;1.05;;
23658;SDS011;12006;42.666;23.326;2023-10-09T12:52:58;2.35;;;1.10;;
23658;SDS011;12006;42.666;23.326;2023-10-09T12:55:27;2.25;;;1.35;;
23658;SDS011;12006;42.666;23.326;2023-10-09T12:57:57;3.03;;;1.90;;
23658;SDS011;12006;42.666;23.326;2023-10-09T13:00:26;1.00;;;0.95;;
23658;SDS011;12006;42.666;23.326;2023-10-09T13:02:52;1.80;;;1.17;;
23658;SDS011;12006;42.666;23.326;2023-10-09T13:05:17;1.35;;;1.15;;
23658;SDS011;12006;42.666;23.326;2023-10-09T13:07:52;2.45;;;1.10;;
23658;SDS011;12006;42.666;23.326;2023-10-09T13:10:19;3.63;;;1.23;;
23658;SDS011;12006;42.666;23.326;2023-10-09T13:12:45;2.95;;;1.20;;
23658;SDS011;12006;42.666;23.326;2023-10-09T13:15:11;1.75;;;1.52;;
23658;SDS011;12006;42.666;23.326;2023-10-09T13:17:37;2.22;;;1.52;;
23658;SDS011;12006;42.666;23.326;2023-10-09T13:20:03;2.03;;;1.10;;
23658;SDS011;12006;42.666;23.326;2023-10-09T13:22:38;1.75;;;1.10;;
23658;SDS011;12006;42.666;23.326;2023-10-09T13:25:04;2.42;;;2.05;;
23658;SDS011;12006;42.666;23.326;2023-10-09T13:27:30;2.35;;;1.23;;
23658;SDS011;12006;42.666;23.326;2023-10-09T13:29:59;3.45;;;1.73;;
23658;SDS011;12006;42.666;23.326;2023-10-09T13:32:33;1.20;;;1.10;;
23658;SDS011;12006;42.666;23.326;2023-10-09T13:35:02;2.65;;;1.38;;
23658;SDS011;12006;42.666;23.326;2023-10-09T13:37:30;1.50;;;1.20;;
23658;SDS011;12006;42.666;23.326;2023-10-09T13:40:02;2.30;;;1.77;;
23658;SDS011;12006;42.666;23.326;2023-10-09T13:42:34;4.05;;;2.85;;
23658;SDS011;12006;42.666;23.326;2023-10-09T13:45:02;2.55;;;1.80;;
23658;SDS011;12006;42.666;23.326;2023-10-09T13:47:32;1.77;;;1.50;;
23658;SDS011;12006;42.666;23.326;2023-10-09T13:49:58;3.03;;;1.50;;
23658;SDS011;12006;42.666;23.326;2023-10-09T13:52:25;1.58;;;1.48;;
23658;SDS011;12006;42.666;23.326;2023-10-09T13:54:51;3.30;;;1.45;;
23658;SDS011;12006;42.666;23.326;2023-10-09T13:57:18;2.35;;;1.60;;
23658;SDS011;12006;42.666;23.326;2023-10-09T13:59:47;2.40;;;1.50;;
23658;SDS011;12006;42.666;23.326;2023-10-09T14:02:15;2.55;;;1.50;;
23658;SDS011;12006;42.666;23.326;2023-10-09T14:04:46;3.42;;;1.42;;
23658;SDS011;12006;42.666;23.326;2023-10-09T14:07:12;3.10;;;1.80;;
23658;SDS011;12006;42.666;23.326;2023-10-09T14:09:41;3.63;;;1.95;;
23658;SDS011;12006;42.666;23.326;2023-10-09T14:12:20;2.67;;;2.22;;
23658;SDS011;12006;42.666;23.326;2023-10-09T14:14:47;3.65;;;2.95;;
23658;SDS011;12006;42.666;23.326;2023-10-09T14:17:13;4.40;;;2.38;;
23658;SDS011;12006;42.666;23.326;2023-10-09T14:19:42;4.00;;;2.30;;
23658;SDS011;12006;42.666;23.326;2023-10-09T14:22:25;7.68;;;5.45;;
23658;SDS011;12006;42.666;23.326;2023-10-09T14:24:51;6.10;;;4.45;;
23658;SDS011;12006;42.666;23.326;2023-10-09T14:27:21;5.55;;;3.22;;
23658;SDS011;12006;42.666;23.326;2023-10-09T14:29:51;3.50;;;2.80;;
23658;SDS011;12006;42.666;23.326;2023-10-09T14:32:21;5.85;;;3.33;;
23658;SDS011;12006;42.666;23.326;2023-10-09T14:34:53;5.15;;;2.92;;
23658;SDS011;12006;42.666;23.326;2023-10-09T14:37:20;5.00;;;2.00;;
23658;SDS011;12006;42.666;23.326;2023-10-09T14:39:46;3.35;;;2.47;;
23658;SDS011;12006;42.666;23.326;2023-10-09T14:42:14;3.70;;;2.13;;
23658;SDS011;12006;42.666;23.326;2023-10-09T14:44:40;3.30;;;2.55;;
23658;SDS011;12006;42.666;23.326;2023-10-09T14:47:06;3.92;;;2.95;;
23658;SDS011;12006;42.666;23.326;2023-10-09T14:49:32;4.18;;;2.35;;
23658;SDS011;12006;42.666;23.326;2023-10-09T14:52:02;5.50;;;1.90;;
23658;SDS011;12006;42.666;23.326;2023-10-09T14:54:28;2.92;;;1.90;;
23658;SDS011;12006;42.666;23.326;2023-10-09T14:56:53;3.53;;;1.90;;
23658;SDS011;12006;42.666;23.326;2023-10-09T14:59:19;4.53;;;2.30;;
23658;SDS011;12006;42.666;23.326;2023-10-09T15:01:47;3.40;;;2.70;;
23658;SDS011;12006;42.666;23.326;2023-10-09T15:04:14;3.55;;;2.15;;
23658;SDS011;12006;42.666;23.326;2023-10-09T15:06:40;3.67;;;2.30;;
23658;SDS011;12006;42.666;23.326;2023-10-09T15:09:05;3.35;;;2.30;;
23658;SDS011;12006;42.666;23.326;2023-10-09T15:11:34;4.05;;;2.38;;
23658;SDS011;12006;42.666;23.326;2023-10-09T15:14:02;5.57;;;2.83;;
23658;SDS011;12006;42.666;23.326;2023-10-09T15:16:30;5.18;;;2.75;;
23658;SDS011;12006;42.666;23.326;2023-10-09T15:18:55;5.43;;;2.53;;
23658;SDS011;12006;42.666;23.326;2023-10-09T15:21:27;6.10;;;5.15;;
23658;SDS011;12006;42.666;23.326;2023-10-09T15:23:56;6.03;;;3.30;;
23658;SDS011;12006;42.666;23.326;2023-10-09T15:26:21;6.30;;;2.78;;
23658;SDS011;12006;42.666;23.326;2023-10-09T15:28:50;3.25;;;2.40;;
23658;SDS011;12006;42.666;23.326;2023-10-09T15:31:16;7.35;;;3.30;;
23658;SDS011;12006;42.666;23.326;2023-10-09T15:33:42;4.35;;;2.63;;
23658;SDS011;12006;42.666;23.326;2023-10-09T15:36:14;5.90;;;2.80;;
23658;SDS011;12006;42.666;23.326;2023-10-09T15:38:45;6.18;;;2.83;;
23658;SDS011;12006;42.666;23.326;2023-10-09T15:41:15;4.82;;;2.80;;
23658;SDS011;12006;42.666;23.326;2023-10-09T15:43:41;6.10;;;2.83;;
23658;SDS011;12006;42.666;23.326;2023-10-09T15:46:15;3.90;;;2.38;;
23658;SDS011;12006;42.666;23.326;2023-10-09T15:48:42;5.95;;;2.85;;
23658;SDS011;12006;42.666;23.326;2023-10-09T15:51:14;3.83;;;2.80;;
23658;SDS011;12006;42.666;23.326;2023-10-09T15:53:43;4.03;;;2.72;;
23658;SDS011;12006;42.666;23.326;2023-10-09T15:56:09;9.25;;;7.50;;
23658;SDS011;12006;42.666;23.326;2023-10-09T15:58:37;8.23;;;4.63;;
23658;SDS011;12006;42.666;23.326;2023-10-09T16:01:12;9.38;;;6.00;;
23658;SDS011;12006;42.666;23.326;2023-10-09T16:03:39;8.50;;;3.90;;
23658;SDS011;12006;42.666;23.326;2023-10-09T16:06:09;6.00;;;3.22;;
23658;SDS011;12006;42.666;23.326;2023-10-09T16:08:40;5.50;;;2.90;;
23658;SDS011;12006;42.666;23.326;2023-10-09T16:11:16;4.93;;;3.38;;
23658;SDS011;12006;42.666;23.326;2023-10-09T16:13:43;5.43;;;3.10;;
23658;SDS011;12006;42.666;23.326;2023-10-09T16:16:08;6.30;;;3.63;;
23658;SDS011;12006;42.666;23.326;2023-10-09T16:18:37;7.22;;;3.47;;
23658;SDS011;12006;42.666;23.326;2023-10-09T16:21:03;8.60;;;3.20;;
23658;SDS011;12006;42.666;23.326;2023-10-09T16:23:33;9.57;;;3.55;;
23658;SDS011;12006;42.666;23.326;2023-10-09T16:25:59;10.35;;;3.50;;
23658;SDS011;12006;42.666;23.326;2023-10-09T16:28:29;10.23;;;3.95;;
23658;SDS011;12006;42.666;23.326;2023-10-09T16:30:56;9.93;;;4.32;;
23658;SDS011;12006;42.666;23.326;2023-10-09T16:33:22;13.10;;;4.30;;
23658;SDS011;12006;42.666;23.326;2023-10-09T16:35:50;9.80;;;3.83;;
23658;SDS011;12006;42.666;23.326;2023-10-09T16:38:19;5.38;;;3.30;;
23658;SDS011;12006;42.666;23.326;2023-10-09T16:40:51;5.07;;;3.53;;
23658;SDS011;12006;42.666;23.326;2023-10-09T16:43:18;6.60;;;4.28;;
23658;SDS011;12006;42.666;23.326;2023-10-09T16:45:44;6.10;;;3.28;;
23658;SDS011;12006;42.666;23.326;2023-10-09T16:48:10;7.90;;;3.20;;
23658;SDS011;12006;42.666;23.326;2023-10-09T16:50:36;10.70;;;3.85;;
23658;SDS011;12006;42.666;23.326;2023-10-09T16:53:01;7.00;;;3.80;;
23658;SDS011;12006;42.666;23.326;2023-10-09T16:55:29;6.78;;;4.70;;
23658;SDS011;12006;42.666;23.326;2023-10-09T16:57:55;9.20;;;5.32;;
23658;SDS011;12006;42.666;23.326;2023-10-09T17:00:22;10.32;;;4.88;;
23658;SDS011;12006;42.666;23.326;2023-10-09T17:02:56;9.82;;;4.82;;
23658;SDS011;12006;42.666;23.326;2023-10-09T17:05:27;7.05;;;3.90;;
23658;SDS011;12006;42.666;23.326;2023-10-09T17:07:56;7.03;;;4.53;;
23658;SDS011;12006;42.666;23.326;2023-10-09T17:10:22;9.07;;;4.30;;
23658;SDS011;12006;42.666;23.326;2023-10-09T17:12:52;10.02;;;4.90;;
23658;SDS011;12006;42.666;23.326;2023-10-09T17:15:18;12.55;;;5.05;;
23658;SDS011;12006;42.666;23.326;2023-10-09T17:17:45;8.50;;;4.55;;
23658;SDS011;12006;42.666;23.326;2023-10-09T17:20:14;5.05;;;3.78;;
23658;SDS011;12006;42.666;23.326;2023-10-09T17:22:44;6.78;;;4.00;;
23658;SDS011;12006;42.666;23.326;2023-10-09T17:25:11;6.40;;;3.83;;
23658;SDS011;12006;42.666;23.326;2023-10-09T17:27:40;8.50;;;3.80;;
23658;SDS011;12006;42.666;23.326;2023-10-09T17:30:09;6.68;;;3.75;;
23658;SDS011;12006;42.666;23.326;2023-10-09T17:32:36;6.90;;;3.83;;
23658;SDS011;12006;42.666;23.326;2023-10-09T17:35:05;4.53;;;3.38;;
23658;SDS011;12006;42.666;23.326;2023-10-09T17:37:38;5.68;;;3.90;;
23658;SDS011;12006;42.666;23.326;2023-10-09T17:40:05;6.63;;;3.60;;
23658;SDS011;12006;42.666;23.326;2023-10-09T17:42:32;8.60;;;4.63;;
23658;SDS011;12006;42.666;23.326;2023-10-09T17:44:57;11.27;;;4.40;;
23658;SDS011;12006;42.666;23.326;2023-10-09T17:47:24;9.32;;;4.20;;
23658;SDS011;12006;42.666;23.326;2023-10-09T17:49:49;11.35;;;4.60;;
23658;SDS011;12006;42.666;23.326;2023-10-09T17:52:16;9.85;;;3.95;;
23658;SDS011;12006;42.666;23.326;2023-10-09T17:54:41;10.02;;;4.60;;
23658;SDS011;12006;42.666;23.326;2023-10-09T17:57:08;8.13;;;3.78;;
23658;SDS011;12006;42.666;23.326;2023-10-09T17:59:33;10.05;;;4.45;;
23658;SDS011;12006;42.666;23.326;2023-10-09T18:01:59;14.93;;;4.78;;
23658;SDS011;12006;42.666;23.326;2023-10-09T18:04:27;14.85;;;5.15;;
23658;SDS011;12006;42.666;23.326;2023-10-09T18:07:00;8.68;;;4.53;;
23658;SDS011;12006;42.666;23.326;2023-10-09T18:09:26;7.78;;;4.10;;
23658;SDS011;12006;42.666;23.326;2023-10-09T18:11:55;9.80;;;4.00;;
23658;SDS011;12006;42.666;23.326;2023-10-09T18:14:21;8.27;;;4.93;;
23658;SDS011;12006;42.666;23.326;2023-10-09T18:16:48;9.00;;;4.37;;
23658;SDS011;12006;42.666;23.326;2023-10-09T18:19:14;8.98;;;4.13;;
23658;SDS011;12006;42.666;23.326;2023-10-09T18:21:40;8.30;;;3.88;;
23658;SDS011;12006;42.666;23.326;2023-10-09T18:24:09;9.23;;;3.60;;
23658;SDS011;12006;42.666;23.326;2023-10-09T18:26:40;8.85;;;4.07;;
23658;SDS011;12006;42.666;23.326;2023-10-09T18:29:06;9.55;;;4.15;;
23658;SDS011;12006;42.666;23.326;2023-10-09T18:31:34;9.65;;;4.38;;
23658;SDS011;12006;42.666;23.326;2023-10-09T18:34:01;7.07;;;4.13;;
23658;SDS011;12006;42.666;23.326;2023-10-09T18:36:27;10.07;;;5.77;;
23658;SDS011;12006;42.666;23.326;2023-10-09T18:38:55;12.17;;;5.03;;
23658;SDS011;12006;42.666;23.326;2023-10-09T18:41:22;8.53;;;4.33;;
23658;SDS011;12006;42.666;23.326;2023-10-09T18:43:49;6.93;;;4.32;;
23658;SDS011;12006;42.666;23.326;2023-10-09T18:46:15;7.53;;;3.97;;
23658;SDS011;12006;42.666;23.326;2023-10-09T18:48:43;7.97;;;4.03;;
23658;SDS011;12006;42.666;23.326;2023-10-09T18:51:16;8.20;;;3.77;;
23658;SDS011;12006;42.666;23.326;2023-10-09T18:53:45;11.77;;;4.97;;
23658;SDS011;12006;42.666;23.326;2023-10-09T18:56:15;12.53;;;4.60;;
23658;SDS011;12006;42.666;23.326;2023-10-09T18:58:44;11.37;;;4.37;;
23658;SDS011;12006;42.666;23.326;2023-10-09T19:01:11;9.63;;;4.70;;
23658;SDS011;12006;42.666;23.326;2023-10-09T19:03:40;11.07;;;4.50;;
23658;SDS011;12006;42.666;23.326;2023-10-09T19:06:06;8.43;;;4.47;;
23658;SDS011;12006;42.666;23.326;2023-10-09T19:08:33;12.38;;;4.30;;
23658;SDS011;12006;42.666;23.326;2023-10-09T19:11:02;13.50;;;5.47;;
23658;SDS011;12006;42.666;23.326;2023-10-09T19:13:38;9.60;;;4.93;;
23658;SDS011;12006;42.666;23.326;2023-10-09T19:16:05;12.97;;;5.80;;
23658;SDS011;12006;42.666;23.326;2023-10-09T19:18:32;11.13;;;4.80;;
23658;SDS011;12006;42.666;23.326;2023-10-09T19:21:09;10.23;;;4.67;;
23658;SDS011;12006;42.666;23.326;2023-10-09T19:23:38;10.37;;;5.07;;
23658;SDS011;12006;42.666;23.326;2023-10-09T19:26:05;9.33;;;4.50;;
23658;SDS011;12006;42.666;23.326;2023-10-09T19:28:32;7.60;;;4.50;;
23658;SDS011;12006;42.666;23.326;2023-10-09T19:31:08;16.53;;;4.63;;
23658;SDS011;12006;42.666;23.326;2023-10-09T19:33:35;14.60;;;4.37;;
23658;SDS011;12006;42.666;23.326;2023-10-09T19:36:03;7.63;;;4.00;;
23658;SDS011;12006;42.666;23.326;2023-10-09T19:38:36;7.57;;;4.00;;
23658;SDS011;12006;42.666;23.326;2023-10-09T19:41:03;9.03;;;4.37;;
23658;SDS011;12006;42.666;23.326;2023-10-09T19:43:28;7.17;;;4.50;;
23658;SDS011;12006;42.666;23.326;2023-10-09T19:46:00;7.70;;;4.97;;
23658;SDS011;12006;42.666;23.326;2023-10-09T19:48:26;9.40;;;5.33;;
23658;SDS011;12006;42.666;23.326;2023-10-09T19:50:57;10.07;;;5.40;;
23658;SDS011;12006;42.666;23.326;2023-10-09T19:53:23;14.10;;;5.30;;
23658;SDS011;12006;42.666;23.326;2023-10-09T19:55:49;8.40;;;5.33;;
23658;SDS011;12006;42.666;23.326;2023-10-09T19:58:15;12.80;;;4.93;;
23658;SDS011;12006;42.666;23.326;2023-10-09T20:00:40;9.00;;;4.70;;
23658;SDS011;12006;42.666;23.326;2023-10-09T20:03:06;9.47;;;4.27;;
23658;SDS011;12006;42.666;23.326;2023-10-09T20:05:31;7.17;;;4.13;;
23658;SDS011;12006;42.666;23.326;2023-10-09T20:07:57;8.33;;;4.10;;
23658;SDS011;12006;42.666;23.326;2023-10-09T20:10:24;7.03;;;4.07;;
23658;SDS011;12006;42.666;23.326;2023-10-09T20:12:49;9.27;;;4.00;;
23658;SDS011;12006;42.666;23.326;2023-10-09T20:15:15;6.93;;;3.93;;
23658;SDS011;12006;42.666;23.326;2023-10-09T20:17:41;8.17;;;4.00;;
23658;SDS011;12006;42.666;23.326;2023-10-09T20:20:09;6.70;;;3.80;;
23658;SDS011;12006;42.666;23.326;2023-10-09T20:22:36;12.37;;;4.13;;
23658;SDS011;12006;42.666;23.326;2023-10-09T20:25:03;10.53;;;4.53;;
23658;SDS011;12006;42.666;23.326;2023-10-09T20:27:37;8.03;;;4.43;;
23658;SDS011;12006;42.666;23.326;2023-10-09T20:30:07;11.80;;;4.87;;
23658;SDS011;12006;42.666;23.326;2023-10-09T20:32:37;13.20;;;4.57;;
23658;SDS011;12006;42.666;23.326;2023-10-09T20:35:05;10.03;;;4.17;;
23658;SDS011;12006;42.666;23.326;2023-10-09T20:37:37;7.03;;;4.03;;
23658;SDS011;12006;42.666;23.326;2023-10-09T20:40:03;8.77;;;4.27;;
23658;SDS011;12006;42.666;23.326;2023-10-09T20:42:29;7.97;;;4.27;;
23658;SDS011;12006;42.666;23.326;2023-10-09T20:44:55;10.23;;;5.00;;
23658;SDS011;12006;42.666;23.326;2023-10-09T20:47:20;9.50;;;4.80;;
23658;SDS011;12006;42.666;23.326;2023-10-09T20:49:45;13.37;;;4.60;;
23658;SDS011;12006;42.666;23.326;2023-10-09T20:52:11;9.80;;;5.00;;
23658;SDS011;12006;42.666;23.326;2023-10-09T20:54:36;8.73;;;4.20;;
23658;SDS011;12006;42.666;23.326;2023-10-09T20:57:02;10.90;;;4.20;;
23658;SDS011;12006;42.666;23.326;2023-10-09T20:59:27;10.87;;;4.40;;
23658;SDS011;12006;42.666;23.326;2023-10-09T21:01:52;9.87;;;4.57;;
23658;SDS011;12006;42.666;23.326;2023-10-09T21:04:18;7.43;;;4.30;;
23658;SDS011;12006;42.666;23.326;2023-10-09T21:06:44;13.37;;;4.70;;
23658;SDS011;12006;42.666;23.326;2023-10-09T21:09:12;10.23;;;4.60;;
23658;SDS011;12006;42.666;23.326;2023-10-09T21:11:37;11.60;;;4.57;;
23658;SDS011;12006;42.666;23.326;2023-10-09T21:14:03;8.33;;;4.60;;
23658;SDS011;12006;42.666;23.326;2023-10-09T21:16:29;7.43;;;4.40;;
23658;SDS011;12006;42.666;23.326;2023-10-09T21:18:55;6.80;;;4.30;;
23658;SDS011;12006;42.666;23.326;2023-10-09T21:21:20;11.93;;;4.47;;
23658;SDS011;12006;42.666;23.326;2023-10-09T21:23:47;10.87;;;4.77;;
23658;SDS011;12006;42.666;23.326;2023-10-09T21:26:19;9.90;;;4.40;;
23658;SDS011;12006;42.666;23.326;2023-10-09T21:28:50;12.60;;;5.07;;
23658;SDS011;12006;42.666;23.326;2023-10-09T21:31:18;12.87;;;5.67;;
23658;SDS011;12006;42.666;23.326;2023-10-09T21:33:45;9.77;;;5.00;;
23658;SDS011;12006;42.666;23.326;2023-10-09T21:36:14;10.67;;;5.73;;
23658;SDS011;12006;42.666;23.326;2023-10-09T21:38:40;12.27;;;5.03;;
23658;SDS011;12006;42.666;23.326;2023-10-09T21:41:13;7.93;;;5.07;;
23658;SDS011;12006;42.666;23.326;2023-10-09T21:43:42;11.07;;;5.47;;
23658;SDS011;12006;42.666;23.326;2023-10-09T21:46:08;10.47;;;4.80;;
23658;SDS011;12006;42.666;23.326;2023-10-09T21:48:35;10.73;;;4.97;;
23658;SDS011;12006;42.666;23.326;2023-10-09T21:51:02;9.30;;;4.43;;
23658;SDS011;12006;42.666;23.326;2023-10-09T21:53:31;11.50;;;5.03;;
23658;SDS011;12006;42.666;23.326;2023-10-09T21:56:03;10.53;;;4.83;;
23658;SDS011;12006;42.666;23.326;2023-10-09T21:58:29;8.23;;;4.67;;
23658;SDS011;12006;42.666;23.326;2023-10-09T22:00:55;10.53;;;4.83;;
23658;SDS011;12006;42.666;23.326;2023-10-09T22:03:22;11.77;;;5.27;;
23658;SDS011;12006;42.666;23.326;2023-10-09T22:05:50;10.30;;;4.47;;
23658;SDS011;12006;42.666;23.326;2023-10-09T22:08:15;4.67;;;3.80;;
23658;SDS011;12006;42.666;23.326;2023-10-09T22:10:41;9.07;;;3.93;;
23658;SDS011;12006;42.666;23.326;2023-10-09T22:13:12;8.57;;;4.60;;
23658;SDS011;12006;42.666;23.326;2023-10-09T22:15:38;11.73;;;4.33;;
23658;SDS011;12006;42.666;23.326;2023-10-09T22:18:04;6.50;;;4.00;;
23658;SDS011;12006;42.666;23.326;2023-10-09T22:20:35;10.40;;;4.87;;
23658;SDS011;12006;42.666;23.326;2023-10-09T22:23:01;7.33;;;4.23;;
23658;SDS011;12006;42.666;23.326;2023-10-09T22:25:26;8.60;;;4.40;;
23658;SDS011;12006;42.666;23.326;2023-10-09T22:27:53;8.97;;;4.53;;
23658;SDS011;12006;42.666;23.326;2023-10-09T22:30:28;13.67;;;4.33;;
23658;SDS011;12006;42.666;23.326;2023-10-09T22:32:57;7.37;;;4.50;;
23658;SDS011;12006;42.666;23.326;2023-10-09T22:35:32;8.93;;;3.70;;
23658;SDS011;12006;42.666;23.326;2023-10-09T22:38:00;9.17;;;4.10;;
23658;SDS011;12006;42.666;23.326;2023-10-09T22:40:36;6.27;;;4.13;;
23658;SDS011;12006;42.666;23.326;2023-10-09T22:43:08;8.40;;;4.57;;
23658;SDS011;12006;42.666;23.326;2023-10-09T22:45:36;7.03;;;4.47;;
23658;SDS011;12006;42.666;23.326;2023-10-09T22:48:07;10.57;;;4.60;;
23658;SDS011;12006;42.666;23.326;2023-10-09T22:50:34;9.93;;;4.33;;
23658;SDS011;12006;42.666;23.326;2023-10-09T22:53:10;10.67;;;5.20;;
23658;SDS011;12006;42.666;23.326;2023-10-09T22:55:47;14.33;;;5.60;;
23658;SDS011;12006;42.666;23.326;2023-10-09T22:58:19;10.63;;;4.70;;
23658;SDS011;12006;42.666;23.326;2023-10-09T23:01:00;12.60;;;5.70;;
23658;SDS011;12006;42.666;23.326;2023-10-09T23:03:27;16.97;;;6.30;;
23658;SDS011;12006;42.666;23.326;2023-10-09T23:05:57;16.03;;;6.57;;
23658;SDS011;12006;42.666;23.326;2023-10-09T23:08:26;15.03;;;6.80;;